sensor_id;sensor_type;location;lat;lon;timestamp;P1;durP1;ratioP1;P2;durP2;ratioP2
5710;SDS011;61291;52.524;13.422;2022-07-22T00:02:04;68.00;;;62.90;;
5710;SDS011;61291;52.524;13.422;2022-07-22T00:04:30;67.33;;;62.40;;
5710;SDS011;61291;52.524;13.422;2022-07-22T00:06:55;69.23;;;63.73;;
5710;SDS011;61291;52.524;13.422;2022-07-22T00:09:21;65.40;;;60.50;;
5710;SDS011;61291;52.524;13.422;2022-07-22T00:11:46;65.67;;;60.67;;
5710;SDS011;61291;52.524;13.422;2022-07-22T00:14:12;69.30;;;63.70;;
5710;SDS011;61291;52.524;13.422;2022-07-22T00:16:38;69.70;;;64.10;;
5710;SDS011;61291;52.524;13.422;2022-07-22T00:19:03;65.20;;;60.40;;
5710;SDS011;61291;52.524;13.422;2022-07-22T00:21:29;68.40;;;63.20;;
5710;SDS011;61291;52.524;13.422;2022-07-22T00:23:55;69.27;;;63.40;;
5710;SDS011;61291;52.524;13.422;2022-07-22T00:26:20;65.17;;;60.27;;
5710;SDS011;61291;52.524;13.422;2022-07-22T00:28:45;64.57;;;59.67;;
5710;SDS011;61291;52.524;13.422;2022-07-22T00:31:11;66.20;;;61.23;;
5710;SDS011;61291;52.524;13.422;2022-07-22T00:33:36;65.73;;;60.73;;
5710;SDS011;61291;52.524;13.422;2022-07-22T00:36:02;66.10;;;61.17;;
5710;SDS011;61291;52.524;13.422;2022-07-22T00:38:28;66.13;;;61.00;;
5710;SDS011;61291;52.524;13.422;2022-07-22T00:40:53;64.97;;;59.63;;
5710;SDS011;61291;52.524;13.422;2022-07-22T00:43:19;59.25;;;54.65;;
5710;SDS011;61291;52.524;13.422;2022-07-22T00:45:44;63.23;;;58.53;;
5710;SDS011;61291;52.524;13.422;2022-07-22T00:48:10;65.00;;;60.30;;
5710;SDS011;61291;52.524;13.422;2022-07-22T00:50:37;65.93;;;61.10;;
5710;SDS011;61291;52.524;13.422;2022-07-22T00:53:02;66.43;;;61.67;;
5710;SDS011;61291;52.524;13.422;2022-07-22T00:55:28;61.75;;;57.15;;
5710;SDS011;61291;52.524;13.422;2022-07-22T00:57:54;67.43;;;62.43;;
5710;SDS011;61291;52.524;13.422;2022-07-22T01:00:21;66.67;;;61.40;;
5710;SDS011;61291;52.524;13.422;2022-07-22T01:02:47;70.27;;;64.40;;
5710;SDS011;61291;52.524;13.422;2022-07-22T01:05:12;69.37;;;64.27;;
5710;SDS011;61291;52.524;13.422;2022-07-22T01:07:38;66.90;;;62.00;;
5710;SDS011;61291;52.524;13.422;2022-07-22T01:10:05;66.80;;;61.70;;
5710;SDS011;61291;52.524;13.422;2022-07-22T01:12:31;65.60;;;60.80;;
5710;SDS011;61291;52.524;13.422;2022-07-22T01:14:57;67.43;;;62.37;;
5710;SDS011;61291;52.524;13.422;2022-07-22T01:17:22;66.00;;;60.90;;
5710;SDS011;61291;52.524;13.422;2022-07-22T01:19:48;81.20;;;75.20;;
5710;SDS011;61291;52.524;13.422;2022-07-22T01:22:15;85.53;;;79.33;;
5710;SDS011;61291;52.524;13.422;2022-07-22T01:24:40;64.93;;;60.13;;
5710;SDS011;61291;52.524;13.422;2022-07-22T01:27:06;66.13;;;61.17;;
5710;SDS011;61291;52.524;13.422;2022-07-22T01:29:32;65.30;;;60.10;;
5710;SDS011;61291;52.524;13.422;2022-07-22T01:31:57;66.30;;;61.50;;
5710;SDS011;61291;52.524;13.422;2022-07-22T01:34:23;64.80;;;59.80;;
5710;SDS011;61291;52.524;13.422;2022-07-22T01:36:49;66.27;;;61.17;;
5710;SDS011;61291;52.524;13.422;2022-07-22T01:39:14;65.23;;;60.33;;
5710;SDS011;61291;52.524;13.422;2022-07-22T01:41:40;64.83;;;59.63;;
5710;SDS011;61291;52.524;13.422;2022-07-22T01:44:06;65.33;;;60.43;;
5710;SDS011;61291;52.524;13.422;2022-07-22T01:46:31;63.77;;;58.77;;
5710;SDS011;61291;52.524;13.422;2022-07-22T01:48:57;66.20;;;61.00;;
5710;SDS011;61291;52.524;13.422;2022-07-22T01:51:22;65.43;;;60.33;;
5710;SDS011;61291;52.524;13.422;2022-07-22T01:53:48;62.60;;;58.00;;
5710;SDS011;61291;52.524;13.422;2022-07-22T01:56:13;70.43;;;64.70;;
5710;SDS011;61291;52.524;13.422;2022-07-22T01:58:39;67.57;;;62.57;;
5710;SDS011;61291;52.524;13.422;2022-07-22T02:01:05;67.67;;;62.30;;
5710;SDS011;61291;52.524;13.422;2022-07-22T02:03:31;66.07;;;61.17;;
5710;SDS011;61291;52.524;13.422;2022-07-22T02:05:57;67.40;;;62.50;;
5710;SDS011;61291;52.524;13.422;2022-07-22T02:08:23;69.03;;;63.90;;
5710;SDS011;61291;52.524;13.422;2022-07-22T02:10:49;65.60;;;60.70;;
5710;SDS011;61291;52.524;13.422;2022-07-22T02:13:14;68.03;;;62.73;;
5710;SDS011;61291;52.524;13.422;2022-07-22T02:15:40;67.90;;;62.03;;
5710;SDS011;61291;52.524;13.422;2022-07-22T02:18:15;66.80;;;61.80;;
5710;SDS011;61291;52.524;13.422;2022-07-22T02:20:43;64.57;;;59.70;;
5710;SDS011;61291;52.524;13.422;2022-07-22T02:23:09;72.07;;;66.47;;
5710;SDS011;61291;52.524;13.422;2022-07-22T02:25:36;68.87;;;63.77;;
5710;SDS011;61291;52.524;13.422;2022-07-22T02:28:02;66.70;;;61.77;;
5710;SDS011;61291;52.524;13.422;2022-07-22T02:30:28;68.13;;;63.00;;
5710;SDS011;61291;52.524;13.422;2022-07-22T02:32:55;73.50;;;68.20;;
5710;SDS011;61291;52.524;13.422;2022-07-22T02:35:21;69.57;;;64.63;;
5710;SDS011;61291;52.524;13.422;2022-07-22T02:37:46;69.10;;;63.90;;
5710;SDS011;61291;52.524;13.422;2022-07-22T02:40:12;71.90;;;66.60;;
5710;SDS011;61291;52.524;13.422;2022-07-22T02:42:37;69.43;;;64.30;;
5710;SDS011;61291;52.524;13.422;2022-07-22T02:45:03;70.87;;;65.53;;
5710;SDS011;61291;52.524;13.422;2022-07-22T02:47:29;74.13;;;68.77;;
5710;SDS011;61291;52.524;13.422;2022-07-22T02:49:54;72.00;;;66.80;;
5710;SDS011;61291;52.524;13.422;2022-07-22T02:52:20;70.77;;;64.83;;
5710;SDS011;61291;52.524;13.422;2022-07-22T02:54:45;73.80;;;68.43;;
5710;SDS011;61291;52.524;13.422;2022-07-22T02:57:11;75.20;;;69.80;;
5710;SDS011;61291;52.524;13.422;2022-07-22T02:59:36;73.80;;;68.30;;
5710;SDS011;61291;52.524;13.422;2022-07-22T03:02:02;63.17;;;58.37;;
5710;SDS011;61291;52.524;13.422;2022-07-22T03:04:27;66.50;;;61.47;;
5710;SDS011;61291;52.524;13.422;2022-07-22T03:06:53;67.10;;;61.00;;
5710;SDS011;61291;52.524;13.422;2022-07-22T03:09:18;71.90;;;66.10;;
5710;SDS011;61291;52.524;13.422;2022-07-22T03:11:44;76.60;;;70.80;;
5710;SDS011;61291;52.524;13.422;2022-07-22T03:14:10;73.37;;;67.53;;
5710;SDS011;61291;52.524;13.422;2022-07-22T03:16:36;69.27;;;63.83;;
5710;SDS011;61291;52.524;13.422;2022-07-22T03:19:02;68.40;;;63.23;;
5710;SDS011;61291;52.524;13.422;2022-07-22T03:21:27;76.13;;;70.53;;
5710;SDS011;61291;52.524;13.422;2022-07-22T03:23:53;71.47;;;65.67;;
5710;SDS011;61291;52.524;13.422;2022-07-22T03:26:19;73.80;;;64.83;;
5710;SDS011;61291;52.524;13.422;2022-07-22T03:28:45;69.40;;;63.57;;
5710;SDS011;61291;52.524;13.422;2022-07-22T03:31:11;72.67;;;67.03;;
5710;SDS011;61291;52.524;13.422;2022-07-22T03:33:37;68.50;;;63.10;;
5710;SDS011;61291;52.524;13.422;2022-07-22T03:36:03;69.23;;;64.20;;
5710;SDS011;61291;52.524;13.422;2022-07-22T03:38:30;69.90;;;64.20;;
5710;SDS011;61291;52.524;13.422;2022-07-22T03:40:55;67.03;;;61.53;;
5710;SDS011;61291;52.524;13.422;2022-07-22T03:43:21;73.97;;;68.33;;
5710;SDS011;61291;52.524;13.422;2022-07-22T03:45:46;78.57;;;72.47;;
5710;SDS011;61291;52.524;13.422;2022-07-22T03:48:12;69.67;;;64.03;;
5710;SDS011;61291;52.524;13.422;2022-07-22T03:50:37;76.97;;;70.47;;
5710;SDS011;61291;52.524;13.422;2022-07-22T03:53:03;67.03;;;61.53;;
5710;SDS011;61291;52.524;13.422;2022-07-22T03:55:28;72.00;;;66.37;;
5710;SDS011;61291;52.524;13.422;2022-07-22T03:57:54;67.70;;;62.30;;
5710;SDS011;61291;52.524;13.422;2022-07-22T04:00:19;70.27;;;64.50;;
5710;SDS011;61291;52.524;13.422;2022-07-22T04:02:45;69.97;;;64.60;;
5710;SDS011;61291;52.524;13.422;2022-07-22T04:05:10;69.30;;;63.70;;
5710;SDS011;61291;52.524;13.422;2022-07-22T04:07:36;70.27;;;64.50;;
5710;SDS011;61291;52.524;13.422;2022-07-22T04:10:01;70.73;;;65.10;;
5710;SDS011;61291;52.524;13.422;2022-07-22T04:12:31;71.13;;;65.43;;
5710;SDS011;61291;52.524;13.422;2022-07-22T04:14:58;69.83;;;64.07;;
5710;SDS011;61291;52.524;13.422;2022-07-22T04:17:24;74.10;;;68.40;;
5710;SDS011;61291;52.524;13.422;2022-07-22T04:19:49;71.03;;;65.33;;
5710;SDS011;61291;52.524;13.422;2022-07-22T04:22:15;73.63;;;67.53;;
5710;SDS011;61291;52.524;13.422;2022-07-22T04:24:40;69.27;;;63.23;;
5710;SDS011;61291;52.524;13.422;2022-07-22T04:27:05;74.13;;;67.30;;
5710;SDS011;61291;52.524;13.422;2022-07-22T04:29:31;69.57;;;63.97;;
5710;SDS011;61291;52.524;13.422;2022-07-22T04:31:56;76.93;;;70.50;;
5710;SDS011;61291;52.524;13.422;2022-07-22T04:34:22;79.03;;;72.93;;
5710;SDS011;61291;52.524;13.422;2022-07-22T04:36:47;80.03;;;72.03;;
5710;SDS011;61291;52.524;13.422;2022-07-22T04:39:13;76.13;;;70.00;;
5710;SDS011;61291;52.524;13.422;2022-07-22T04:41:38;75.37;;;68.83;;
5710;SDS011;61291;52.524;13.422;2022-07-22T04:44:04;78.03;;;71.77;;
5710;SDS011;61291;52.524;13.422;2022-07-22T04:46:29;73.80;;;67.83;;
5710;SDS011;61291;52.524;13.422;2022-07-22T04:48:55;75.23;;;68.90;;
5710;SDS011;61291;52.524;13.422;2022-07-22T04:51:20;74.20;;;67.93;;
5710;SDS011;61291;52.524;13.422;2022-07-22T04:53:46;79.50;;;73.03;;
5710;SDS011;61291;52.524;13.422;2022-07-22T04:56:11;73.93;;;67.90;;
5710;SDS011;61291;52.524;13.422;2022-07-22T04:58:37;70.00;;;64.30;;
5710;SDS011;61291;52.524;13.422;2022-07-22T05:01:02;76.13;;;68.93;;
5710;SDS011;61291;52.524;13.422;2022-07-22T05:03:28;75.43;;;68.97;;
5710;SDS011;61291;52.524;13.422;2022-07-22T05:05:53;74.50;;;68.73;;
5710;SDS011;61291;52.524;13.422;2022-07-22T05:08:19;76.47;;;69.97;;
5710;SDS011;61291;52.524;13.422;2022-07-22T05:10:44;75.47;;;69.27;;
5710;SDS011;61291;52.524;13.422;2022-07-22T05:13:11;77.77;;;70.87;;
5710;SDS011;61291;52.524;13.422;2022-07-22T05:15:38;78.40;;;71.80;;
5710;SDS011;61291;52.524;13.422;2022-07-22T05:18:03;76.30;;;69.90;;
5710;SDS011;61291;52.524;13.422;2022-07-22T05:20:29;73.30;;;67.00;;
5710;SDS011;61291;52.524;13.422;2022-07-22T05:22:54;71.57;;;65.43;;
5710;SDS011;61291;52.524;13.422;2022-07-22T05:25:20;76.00;;;69.50;;
5710;SDS011;61291;52.524;13.422;2022-07-22T05:27:49;74.27;;;68.07;;
5710;SDS011;61291;52.524;13.422;2022-07-22T05:30:19;71.47;;;65.07;;
5710;SDS011;61291;52.524;13.422;2022-07-22T05:32:44;81.07;;;74.37;;
5710;SDS011;61291;52.524;13.422;2022-07-22T05:35:10;81.00;;;74.07;;
5710;SDS011;61291;52.524;13.422;2022-07-22T05:37:36;76.27;;;69.43;;
5710;SDS011;61291;52.524;13.422;2022-07-22T05:40:02;71.83;;;65.83;;
5710;SDS011;61291;52.524;13.422;2022-07-22T05:42:28;69.20;;;63.43;;
5710;SDS011;61291;52.524;13.422;2022-07-22T05:44:53;74.00;;;66.97;;
5710;SDS011;61291;52.524;13.422;2022-07-22T05:47:19;74.47;;;68.27;;
5710;SDS011;61291;52.524;13.422;2022-07-22T05:49:44;80.07;;;73.77;;
5710;SDS011;61291;52.524;13.422;2022-07-22T05:52:10;71.20;;;65.20;;
5710;SDS011;61291;52.524;13.422;2022-07-22T05:54:35;72.33;;;66.20;;
5710;SDS011;61291;52.524;13.422;2022-07-22T05:57:01;76.60;;;70.30;;
5710;SDS011;61291;52.524;13.422;2022-07-22T05:59:26;77.10;;;70.90;;
5710;SDS011;61291;52.524;13.422;2022-07-22T06:01:52;72.37;;;66.00;;
5710;SDS011;61291;52.524;13.422;2022-07-22T06:04:17;78.00;;;71.80;;
5710;SDS011;61291;52.524;13.422;2022-07-22T06:06:43;70.93;;;65.67;;
5710;SDS011;61291;52.524;13.422;2022-07-22T06:09:08;72.83;;;66.40;;
5710;SDS011;61291;52.524;13.422;2022-07-22T06:11:34;71.83;;;65.90;;
5710;SDS011;61291;52.524;13.422;2022-07-22T06:13:59;81.93;;;75.63;;
5710;SDS011;61291;52.524;13.422;2022-07-22T06:16:25;72.90;;;67.00;;
5710;SDS011;61291;52.524;13.422;2022-07-22T06:18:50;70.07;;;64.37;;
5710;SDS011;61291;52.524;13.422;2022-07-22T06:21:16;68.40;;;62.90;;
5710;SDS011;61291;52.524;13.422;2022-07-22T06:23:41;76.00;;;69.77;;
5710;SDS011;61291;52.524;13.422;2022-07-22T06:26:07;77.80;;;71.67;;
5710;SDS011;61291;52.524;13.422;2022-07-22T06:28:32;76.30;;;70.23;;
5710;SDS011;61291;52.524;13.422;2022-07-22T06:30:58;73.93;;;67.50;;
5710;SDS011;61291;52.524;13.422;2022-07-22T06:33:23;77.23;;;70.93;;
5710;SDS011;61291;52.524;13.422;2022-07-22T06:35:49;77.80;;;71.87;;
5710;SDS011;61291;52.524;13.422;2022-07-22T06:38:14;69.53;;;63.73;;
5710;SDS011;61291;52.524;13.422;2022-07-22T06:40:40;79.13;;;73.63;;
5710;SDS011;61291;52.524;13.422;2022-07-22T06:43:05;78.20;;;72.70;;
5710;SDS011;61291;52.524;13.422;2022-07-22T06:45:31;73.70;;;68.20;;
5710;SDS011;61291;52.524;13.422;2022-07-22T06:47:57;70.70;;;65.10;;
5710;SDS011;61291;52.524;13.422;2022-07-22T06:50:22;77.93;;;72.13;;
5710;SDS011;61291;52.524;13.422;2022-07-22T06:52:48;69.13;;;63.53;;
5710;SDS011;61291;52.524;13.422;2022-07-22T06:55:14;66.73;;;61.13;;
5710;SDS011;61291;52.524;13.422;2022-07-22T06:57:40;69.80;;;64.03;;
5710;SDS011;61291;52.524;13.422;2022-07-22T07:00:05;65.07;;;60.03;;
5710;SDS011;61291;52.524;13.422;2022-07-22T07:02:35;68.83;;;63.27;;
5710;SDS011;61291;52.524;13.422;2022-07-22T07:05:01;74.13;;;68.53;;
5710;SDS011;61291;52.524;13.422;2022-07-22T07:07:26;67.50;;;62.10;;
5710;SDS011;61291;52.524;13.422;2022-07-22T07:09:52;70.50;;;65.00;;
5710;SDS011;61291;52.524;13.422;2022-07-22T07:12:17;66.43;;;61.23;;
5710;SDS011;61291;52.524;13.422;2022-07-22T07:14:43;69.93;;;64.53;;
5710;SDS011;61291;52.524;13.422;2022-07-22T07:17:08;69.77;;;64.37;;
5710;SDS011;61291;52.524;13.422;2022-07-22T07:19:34;64.73;;;58.80;;
5710;SDS011;61291;52.524;13.422;2022-07-22T07:21:59;66.70;;;60.67;;
5710;SDS011;61291;52.524;13.422;2022-07-22T07:24:24;63.33;;;58.13;;
5710;SDS011;61291;52.524;13.422;2022-07-22T07:26:50;72.20;;;66.53;;
5710;SDS011;61291;52.524;13.422;2022-07-22T07:29:15;69.23;;;63.73;;
5710;SDS011;61291;52.524;13.422;2022-07-22T07:31:41;67.40;;;62.00;;
5710;SDS011;61291;52.524;13.422;2022-07-22T07:34:07;74.07;;;68.57;;
5710;SDS011;61291;52.524;13.422;2022-07-22T07:36:32;75.33;;;69.47;;
5710;SDS011;61291;52.524;13.422;2022-07-22T07:38:58;67.00;;;61.80;;
5710;SDS011;61291;52.524;13.422;2022-07-22T07:41:23;69.50;;;64.20;;
5710;SDS011;61291;52.524;13.422;2022-07-22T07:43:49;71.07;;;65.73;;
5710;SDS011;61291;52.524;13.422;2022-07-22T07:46:14;73.37;;;67.37;;
5710;SDS011;61291;52.524;13.422;2022-07-22T07:48:40;72.87;;;67.23;;
5710;SDS011;61291;52.524;13.422;2022-07-22T07:51:05;78.63;;;72.83;;
5710;SDS011;61291;52.524;13.422;2022-07-22T07:53:31;66.23;;;60.60;;
5710;SDS011;61291;52.524;13.422;2022-07-22T07:55:57;70.80;;;65.20;;
5710;SDS011;61291;52.524;13.422;2022-07-22T07:58:22;70.10;;;65.03;;
5710;SDS011;61291;52.524;13.422;2022-07-22T08:00:48;70.23;;;64.53;;
5710;SDS011;61291;52.524;13.422;2022-07-22T08:03:13;73.40;;;67.70;;
5710;SDS011;61291;52.524;13.422;2022-07-22T08:05:39;72.30;;;67.00;;
5710;SDS011;61291;52.524;13.422;2022-07-22T08:08:05;73.90;;;68.20;;
5710;SDS011;61291;52.524;13.422;2022-07-22T08:10:31;67.10;;;62.30;;
5710;SDS011;61291;52.524;13.422;2022-07-22T08:12:57;68.07;;;62.87;;
5710;SDS011;61291;52.524;13.422;2022-07-22T08:15:24;73.30;;;67.83;;
5710;SDS011;61291;52.524;13.422;2022-07-22T08:17:50;76.00;;;70.20;;
5710;SDS011;61291;52.524;13.422;2022-07-22T08:20:16;75.57;;;69.23;;
5710;SDS011;61291;52.524;13.422;2022-07-22T08:22:42;80.27;;;74.60;;
5710;SDS011;61291;52.524;13.422;2022-07-22T08:25:07;76.63;;;71.53;;
5710;SDS011;61291;52.524;13.422;2022-07-22T08:27:33;72.03;;;66.63;;
5710;SDS011;61291;52.524;13.422;2022-07-22T08:29:59;78.10;;;72.67;;
5710;SDS011;61291;52.524;13.422;2022-07-22T08:32:24;74.73;;;69.07;;
5710;SDS011;61291;52.524;13.422;2022-07-22T08:34:50;76.67;;;70.97;;
5710;SDS011;61291;52.524;13.422;2022-07-22T08:37:16;70.60;;;65.20;;
5710;SDS011;61291;52.524;13.422;2022-07-22T08:39:42;65.57;;;60.67;;
5710;SDS011;61291;52.524;13.422;2022-07-22T08:42:07;71.17;;;65.47;;
5710;SDS011;61291;52.524;13.422;2022-07-22T08:44:33;71.07;;;65.87;;
5710;SDS011;61291;52.524;13.422;2022-07-22T08:46:59;67.27;;;62.27;;
5710;SDS011;61291;52.524;13.422;2022-07-22T08:49:25;67.90;;;62.70;;
5710;SDS011;61291;52.524;13.422;2022-07-22T08:51:51;70.37;;;65.13;;
5710;SDS011;61291;52.524;13.422;2022-07-22T08:54:17;69.00;;;64.00;;
5710;SDS011;61291;52.524;13.422;2022-07-22T08:56:46;67.33;;;62.53;;
5710;SDS011;61291;52.524;13.422;2022-07-22T08:59:12;64.97;;;60.30;;
5710;SDS011;61291;52.524;13.422;2022-07-22T09:01:38;68.67;;;63.70;;
5710;SDS011;61291;52.524;13.422;2022-07-22T09:04:24;68.20;;;62.97;;
5710;SDS011;61291;52.524;13.422;2022-07-22T09:06:50;72.47;;;67.40;;
5710;SDS011;61291;52.524;13.422;2022-07-22T09:09:15;66.43;;;61.27;;
5710;SDS011;61291;52.524;13.422;2022-07-22T09:11:41;68.23;;;62.43;;
5710;SDS011;61291;52.524;13.422;2022-07-22T09:14:06;67.37;;;62.07;;
5710;SDS011;61291;52.524;13.422;2022-07-22T09:16:42;69.30;;;63.93;;
5710;SDS011;61291;52.524;13.422;2022-07-22T09:19:10;73.17;;;66.93;;
5710;SDS011;61291;52.524;13.422;2022-07-22T09:21:37;69.77;;;64.33;;
5710;SDS011;61291;52.524;13.422;2022-07-22T09:24:04;68.47;;;63.03;;
5710;SDS011;61291;52.524;13.422;2022-07-22T09:26:31;64.27;;;59.17;;
5710;SDS011;61291;52.524;13.422;2022-07-22T09:28:58;61.60;;;56.77;;
5710;SDS011;61291;52.524;13.422;2022-07-22T09:31:25;62.30;;;57.10;;
5710;SDS011;61291;52.524;13.422;2022-07-22T09:33:55;61.53;;;56.53;;
5710;SDS011;61291;52.524;13.422;2022-07-22T09:36:22;60.63;;;56.37;;
5710;SDS011;61291;52.524;13.422;2022-07-22T09:38:48;65.00;;;60.10;;
5710;SDS011;61291;52.524;13.422;2022-07-22T09:41:14;69.53;;;64.50;;
5710;SDS011;61291;52.524;13.422;2022-07-22T09:43:39;66.97;;;61.57;;
5710;SDS011;61291;52.524;13.422;2022-07-22T09:46:05;65.00;;;60.07;;
5710;SDS011;61291;52.524;13.422;2022-07-22T09:48:31;68.73;;;63.50;;
5710;SDS011;61291;52.524;13.422;2022-07-22T09:50:57;62.33;;;57.73;;
5710;SDS011;61291;52.524;13.422;2022-07-22T09:53:24;56.20;;;50.80;;
5710;SDS011;61291;52.524;13.422;2022-07-22T09:55:52;57.23;;;53.10;;
5710;SDS011;61291;52.524;13.422;2022-07-22T09:58:18;58.43;;;54.00;;
5710;SDS011;61291;52.524;13.422;2022-07-22T10:00:44;59.50;;;55.10;;
5710;SDS011;61291;52.524;13.422;2022-07-22T10:03:11;58.90;;;54.40;;
5710;SDS011;61291;52.524;13.422;2022-07-22T10:05:42;60.30;;;56.10;;
5710;SDS011;61291;52.524;13.422;2022-07-22T10:08:08;60.43;;;55.70;;
5710;SDS011;61291;52.524;13.422;2022-07-22T10:10:35;60.13;;;55.43;;
5710;SDS011;61291;52.524;13.422;2022-07-22T10:13:03;58.67;;;54.10;;
5710;SDS011;61291;52.524;13.422;2022-07-22T10:15:30;54.67;;;50.40;;
5710;SDS011;61291;52.524;13.422;2022-07-22T10:17:58;57.93;;;53.10;;
5710;SDS011;61291;52.524;13.422;2022-07-22T10:20:27;59.23;;;54.40;;
5710;SDS011;61291;52.524;13.422;2022-07-22T10:23:02;57.43;;;52.90;;
5710;SDS011;61291;52.524;13.422;2022-07-22T10:25:30;58.93;;;54.40;;
5710;SDS011;61291;52.524;13.422;2022-07-22T10:28:21;59.00;;;54.40;;
5710;SDS011;61291;52.524;13.422;2022-07-22T10:30:49;57.07;;;52.10;;
5710;SDS011;61291;52.524;13.422;2022-07-22T10:33:15;57.90;;;53.10;;
5710;SDS011;61291;52.524;13.422;2022-07-22T10:38:08;56.27;;;51.97;;
5710;SDS011;61291;52.524;13.422;2022-07-22T10:40:51;55.13;;;50.83;;
5710;SDS011;61291;52.524;13.422;2022-07-22T10:43:25;53.77;;;49.27;;
5710;SDS011;61291;52.524;13.422;2022-07-22T10:48:20;56.43;;;52.00;;
5710;SDS011;61291;52.524;13.422;2022-07-22T10:51:18;64.77;;;59.80;;
5710;SDS011;61291;52.524;13.422;2022-07-22T10:53:55;56.43;;;52.10;;
5710;SDS011;61291;52.524;13.422;2022-07-22T10:58:52;61.73;;;56.90;;
5710;SDS011;61291;52.524;13.422;2022-07-22T11:01:34;64.90;;;59.80;;
5710;SDS011;61291;52.524;13.422;2022-07-22T11:04:12;58.80;;;54.30;;
5710;SDS011;61291;52.524;13.422;2022-07-22T11:06:43;60.90;;;56.30;;
5710;SDS011;61291;52.524;13.422;2022-07-22T11:09:10;58.30;;;54.07;;
5710;SDS011;61291;52.524;13.422;2022-07-22T11:11:41;58.83;;;54.73;;
5710;SDS011;61291;52.524;13.422;2022-07-22T11:14:12;63.00;;;58.60;;
5710;SDS011;61291;52.524;13.422;2022-07-22T11:16:38;60.67;;;55.73;;
5710;SDS011;61291;52.524;13.422;2022-07-22T11:19:04;59.30;;;54.83;;
5710;SDS011;61291;52.524;13.422;2022-07-22T11:21:31;60.40;;;55.97;;
5710;SDS011;61291;52.524;13.422;2022-07-22T11:23:58;57.03;;;53.23;;
5710;SDS011;61291;52.524;13.422;2022-07-22T11:26:45;64.00;;;59.50;;
5710;SDS011;61291;52.524;13.422;2022-07-22T11:29:16;64.57;;;59.90;;
5710;SDS011;61291;52.524;13.422;2022-07-22T11:31:53;58.43;;;53.73;;
5710;SDS011;61291;52.524;13.422;2022-07-22T11:34:19;64.23;;;59.43;;
5710;SDS011;61291;52.524;13.422;2022-07-22T11:36:47;64.33;;;59.47;;
5710;SDS011;61291;52.524;13.422;2022-07-22T11:39:14;68.60;;;63.30;;
5710;SDS011;61291;52.524;13.422;2022-07-22T11:41:44;58.30;;;54.10;;
5710;SDS011;61291;52.524;13.422;2022-07-22T11:44:09;66.60;;;61.80;;
5710;SDS011;61291;52.524;13.422;2022-07-22T11:46:39;70.20;;;65.07;;
5710;SDS011;61291;52.524;13.422;2022-07-22T11:49:06;61.67;;;56.57;;
5710;SDS011;61291;52.524;13.422;2022-07-22T11:51:33;63.13;;;58.33;;
5710;SDS011;61291;52.524;13.422;2022-07-22T11:54:01;61.77;;;56.47;;
5710;SDS011;61291;52.524;13.422;2022-07-22T11:56:27;62.40;;;57.70;;
5710;SDS011;61291;52.524;13.422;2022-07-22T11:58:53;63.13;;;58.53;;
5710;SDS011;61291;52.524;13.422;2022-07-22T12:01:21;64.80;;;59.80;;
5710;SDS011;61291;52.524;13.422;2022-07-22T12:03:52;61.67;;;56.87;;
5710;SDS011;61291;52.524;13.422;2022-07-22T12:06:20;61.33;;;56.73;;
5710;SDS011;61291;52.524;13.422;2022-07-22T12:08:55;65.30;;;60.30;;
5710;SDS011;61291;52.524;13.422;2022-07-22T12:11:32;64.17;;;59.17;;
5710;SDS011;61291;52.524;13.422;2022-07-22T12:14:01;64.10;;;58.47;;
5710;SDS011;61291;52.524;13.422;2022-07-22T12:16:33;60.17;;;55.60;;
5710;SDS011;61291;52.524;13.422;2022-07-22T12:19:00;62.40;;;57.50;;
5710;SDS011;61291;52.524;13.422;2022-07-22T12:21:32;63.50;;;58.50;;
5710;SDS011;61291;52.524;13.422;2022-07-22T12:24:24;58.70;;;54.43;;
5710;SDS011;61291;52.524;13.422;2022-07-22T12:26:54;62.27;;;57.67;;
5710;SDS011;61291;52.524;13.422;2022-07-22T12:29:29;64.30;;;59.03;;
5710;SDS011;61291;52.524;13.422;2022-07-22T12:32:23;61.67;;;56.53;;
5710;SDS011;61291;52.524;13.422;2022-07-22T12:37:20;63.10;;;58.00;;
5710;SDS011;61291;52.524;13.422;2022-07-22T12:40:22;62.70;;;57.60;;
5710;SDS011;61291;52.524;13.422;2022-07-22T12:42:45;66.03;;;61.03;;
5710;SDS011;61291;52.524;13.422;2022-07-22T12:50:21;62.90;;;58.30;;
5710;SDS011;61291;52.524;13.422;2022-07-22T12:52:48;64.27;;;59.03;;
5710;SDS011;61291;52.524;13.422;2022-07-22T12:55:15;63.03;;;58.03;;
5710;SDS011;61291;52.524;13.422;2022-07-22T12:57:41;65.43;;;60.53;;
5710;SDS011;61291;52.524;13.422;2022-07-22T13:00:07;68.17;;;63.07;;
5710;SDS011;61291;52.524;13.422;2022-07-22T13:02:33;65.97;;;60.87;;
5710;SDS011;61291;52.524;13.422;2022-07-22T13:04:59;65.33;;;60.23;;
5710;SDS011;61291;52.524;13.422;2022-07-22T13:07:24;63.07;;;58.27;;
5710;SDS011;61291;52.524;13.422;2022-07-22T13:09:50;60.77;;;55.73;;
5710;SDS011;61291;52.524;13.422;2022-07-22T13:12:15;57.03;;;52.13;;
5710;SDS011;61291;52.524;13.422;2022-07-22T13:14:41;57.20;;;52.50;;
5710;SDS011;61291;52.524;13.422;2022-07-22T13:17:06;59.80;;;54.97;;
5710;SDS011;61291;52.524;13.422;2022-07-22T13:19:32;62.17;;;56.77;;
5710;SDS011;61291;52.524;13.422;2022-07-22T13:21:57;58.37;;;53.77;;
5710;SDS011;61291;52.524;13.422;2022-07-22T13:24:23;60.83;;;55.83;;
5710;SDS011;61291;52.524;13.422;2022-07-22T13:26:49;59.23;;;54.53;;
5710;SDS011;61291;52.524;13.422;2022-07-22T13:29:16;61.40;;;56.43;;
5710;SDS011;61291;52.524;13.422;2022-07-22T13:31:42;61.87;;;57.20;;
5710;SDS011;61291;52.524;13.422;2022-07-22T13:34:10;66.87;;;57.83;;
5710;SDS011;61291;52.524;13.422;2022-07-22T13:36:36;65.00;;;59.87;;
5710;SDS011;61291;52.524;13.422;2022-07-22T13:39:01;59.70;;;55.10;;
5710;SDS011;61291;52.524;13.422;2022-07-22T13:41:29;60.27;;;55.57;;
5710;SDS011;61291;52.524;13.422;2022-07-22T13:43:54;62.10;;;57.20;;
5710;SDS011;61291;52.524;13.422;2022-07-22T13:46:20;55.80;;;51.20;;
5710;SDS011;61291;52.524;13.422;2022-07-22T13:48:45;58.97;;;54.43;;
5710;SDS011;61291;52.524;13.422;2022-07-22T13:51:11;57.10;;;52.60;;
5710;SDS011;61291;52.524;13.422;2022-07-22T13:53:37;56.90;;;52.20;;
5710;SDS011;61291;52.524;13.422;2022-07-22T13:56:03;57.33;;;52.43;;
5710;SDS011;61291;52.524;13.422;2022-07-22T13:58:29;51.10;;;46.70;;
5710;SDS011;61291;52.524;13.422;2022-07-22T14:00:55;58.77;;;54.20;;
5710;SDS011;61291;52.524;13.422;2022-07-22T14:03:21;55.53;;;51.23;;
5710;SDS011;61291;52.524;13.422;2022-07-22T14:05:47;56.07;;;51.77;;
5710;SDS011;61291;52.524;13.422;2022-07-22T14:08:12;59.00;;;54.03;;
5710;SDS011;61291;52.524;13.422;2022-07-22T14:10:38;56.67;;;51.87;;
5710;SDS011;61291;52.524;13.422;2022-07-22T14:13:03;60.50;;;55.60;;
5710;SDS011;61291;52.524;13.422;2022-07-22T14:15:31;60.03;;;55.10;;
5710;SDS011;61291;52.524;13.422;2022-07-22T14:17:57;61.30;;;56.20;;
5710;SDS011;61291;52.524;13.422;2022-07-22T14:20:22;65.87;;;60.50;;
5710;SDS011;61291;52.524;13.422;2022-07-22T14:22:48;60.80;;;55.87;;
5710;SDS011;61291;52.524;13.422;2022-07-22T14:25:13;64.40;;;59.30;;
5710;SDS011;61291;52.524;13.422;2022-07-22T14:27:39;61.00;;;56.10;;
5710;SDS011;61291;52.524;13.422;2022-07-22T14:30:05;61.17;;;56.30;;
5710;SDS011;61291;52.524;13.422;2022-07-22T14:32:30;64.50;;;59.60;;
5710;SDS011;61291;52.524;13.422;2022-07-22T14:34:56;61.77;;;56.97;;